createdAt,value
2019-01-23T00:01:00.536Z,17.40
2019-01-23T00:06:05.240Z,17.57
2019-01-23T00:11:09.676Z,18.37
2019-01-23T00:16:14.052Z,18.37
2019-01-23T00:21:18.493Z,18.40
2019-01-23T00:26:23.830Z,17.10
2019-01-23T00:31:28.238Z,18.73
2019-01-23T00:36:32.661Z,18.67
2019-01-23T00:41:37.087Z,19.70
2019-01-23T00:46:41.442Z,19.33
2019-01-23T00:51:45.817Z,18.77
2019-01-23T00:56:50.192Z,19.37
2019-01-23T01:01:54.670Z,20.00
2019-01-23T01:06:59.061Z,21.67
2019-01-23T01:12:03.578Z,22.63
2019-01-23T01:17:07.928Z,23.10
2019-01-23T01:22:12.289Z,25.53
2019-01-23T01:27:16.688Z,23.80
2019-01-23T01:32:21.127Z,26.47
2019-01-23T01:37:25.570Z,27.57
2019-01-23T01:42:29.950Z,27.50
2019-01-23T01:47:34.405Z,29.13
2019-01-23T01:52:38.845Z,28.80
2019-01-23T01:57:43.274Z,30.33
2019-01-23T02:02:47.704Z,31.90
2019-01-23T02:07:52.054Z,31.97
2019-01-23T02:12:56.400Z,33.97
2019-01-23T02:18:00.776Z,32.17
2019-01-23T02:23:05.170Z,31.10
2019-01-23T02:28:09.573Z,34.30
2019-01-23T02:33:13.952Z,33.97
2019-01-23T02:38:18.355Z,34.17
2019-01-23T02:43:22.705Z,33.20
2019-01-23T02:48:27.239Z,35.50
2019-01-23T02:53:31.576Z,33.90
2019-01-23T02:58:35.952Z,33.87
2019-01-23T03:03:40.370Z,34.13
2019-01-23T03:08:44.720Z,32.03
2019-01-23T03:13:49.245Z,33.83
2019-01-23T03:18:55.077Z,34.27
2019-01-23T03:23:59.439Z,33.67
2019-01-23T03:29:03.884Z,31.93
2019-01-23T03:34:08.277Z,31.90
2019-01-23T03:39:12.655Z,31.40
2019-01-23T03:44:17.052Z,31.77
2019-01-23T03:49:21.430Z,33.20
2019-01-23T03:54:26.904Z,32.73
2019-01-23T03:59:32.348Z,31.13
2019-01-23T04:04:37.018Z,33.33
2019-01-23T04:09:41.382Z,30.87
2019-01-23T04:14:45.723Z,33.70
2019-01-23T04:19:50.177Z,33.30
2019-01-23T04:24:54.537Z,34.13
2019-01-23T04:29:58.891Z,34.60
2019-01-23T04:35:03.634Z,35.70
2019-01-23T04:40:10.431Z,33.02
2019-01-23T04:45:16.821Z,34.30
2019-01-23T04:50:21.219Z,34.97
2019-01-23T04:55:25.637Z,35.20
2019-01-23T05:00:31.755Z,35.27
2019-01-23T05:05:36.128Z,35.63
2019-01-23T05:10:40.570Z,36.50
2019-01-23T05:15:44.962Z,35.60
2019-01-23T05:20:49.317Z,33.93
2019-01-23T05:25:53.757Z,34.17
2019-01-23T05:30:58.160Z,34.07
2019-01-23T05:36:02.547Z,35.23
2019-01-23T05:41:06.927Z,32.63
2019-01-23T05:46:11.311Z,34.70
2019-01-23T05:51:16.057Z,32.40
2019-01-23T05:56:20.441Z,34.57
2019-01-23T06:01:24.878Z,33.83
2019-01-23T06:06:29.291Z,35.47
2019-01-23T06:11:33.664Z,35.80
2019-01-23T06:16:38.045Z,34.70
2019-01-23T06:21:43.517Z,33.50
2019-01-23T06:26:47.940Z,34.93
2019-01-23T06:31:52.313Z,34.10
2019-01-23T06:36:56.728Z,33.07
2019-01-23T06:42:01.059Z,32.67
2019-01-23T06:47:05.405Z,32.17
2019-01-23T06:52:09.783Z,33.67
2019-01-23T06:57:14.176Z,32.17
2019-01-23T07:02:18.562Z,32.07
2019-01-23T07:07:22.932Z,33.90
2019-01-23T07:12:27.314Z,32.13
2019-01-23T07:17:31.724Z,33.40
2019-01-23T07:22:36.156Z,31.20
2019-01-23T07:27:40.586Z,32.10
2019-01-23T07:32:46.080Z,32.13
2019-01-23T07:37:50.437Z,33.60
2019-01-23T07:42:54.790Z,32.83
2019-01-23T07:47:59.159Z,33.90
2019-01-23T07:53:03.520Z,32.37
2019-01-23T07:58:07.915Z,34.13
2019-01-23T08:03:12.260Z,32.17
2019-01-23T08:08:16.642Z,31.60
2019-01-23T08:13:21.087Z,32.13
2019-01-23T08:18:25.481Z,32.17
2019-01-23T08:23:30.957Z,31.87
2019-01-23T08:28:35.699Z,32.30
2019-01-23T08:33:42.959Z,29.97
2019-01-23T08:38:47.317Z,32.67
2019-01-23T08:43:51.813Z,30.97
2019-01-23T08:48:56.161Z,29.43
2019-01-23T08:54:00.580Z,29.20
2019-01-23T08:59:05.057Z,28.97
2019-01-23T09:04:09.430Z,28.97
2019-01-23T09:09:13.781Z,28.97
2019-01-23T09:14:19.296Z,30.40
2019-01-23T09:19:23.658Z,30.33
2019-01-23T09:24:28.030Z,30.83
2019-01-23T09:29:32.376Z,31.00
2019-01-23T09:34:39.984Z,28.97
2019-01-23T09:39:47.652Z,29.50
2019-01-23T09:45:14.837Z,28.03
2019-01-23T09:50:29.427Z,27.07
2019-01-23T09:55:33.927Z,27.87
2019-01-23T10:00:38.313Z,28.57
2019-01-23T10:05:42.705Z,27.17
2019-01-23T10:10:47.079Z,26.07
2019-01-23T10:15:51.498Z,24.97
2019-01-23T10:20:55.850Z,24.72
2019-01-23T10:26:00.255Z,24.97
2019-01-23T10:31:06.823Z,26.03
2019-01-23T10:36:10.821Z,26.87
2019-01-23T10:41:15.169Z,26.17
2019-01-23T10:46:19.633Z,25.40
2019-01-23T10:51:23.993Z,23.87
2019-01-23T10:56:28.356Z,24.23
2019-01-23T11:01:32.753Z,24.10
2019-01-23T11:06:37.145Z,23.90
2019-01-23T11:11:41.511Z,23.40
2019-01-23T11:16:45.872Z,22.90
2019-01-23T11:21:50.254Z,24.07
2019-01-23T11:26:54.608Z,23.53
2019-01-23T11:31:58.970Z,23.37
2019-01-23T11:37:03.317Z,23.53
2019-01-23T11:42:07.752Z,23.60
2019-01-23T11:47:12.182Z,23.17
2019-01-23T11:52:16.532Z,22.33
2019-01-23T11:57:20.968Z,22.20
2019-01-23T12:02:30.758Z,21.63
2019-01-23T12:07:31.458Z,19.90
2019-01-23T12:12:35.923Z,19.73
2019-01-23T12:17:40.478Z,18.80
2019-01-23T12:22:44.954Z,18.43
2019-01-23T12:27:49.368Z,18.73
2019-01-23T12:32:53.740Z,18.40
2019-01-23T12:37:58.118Z,16.97
2019-01-23T12:43:02.480Z,14.55
2019-01-23T12:48:06.910Z,14.07
2019-01-23T12:53:11.262Z,13.53
2019-01-23T12:58:15.641Z,17.87
2019-01-23T13:03:20.021Z,31.60
2019-01-23T13:08:24.409Z,35.40
2019-01-23T13:13:28.765Z,46.17
2019-01-23T13:18:34.242Z,41.47
2019-01-23T13:23:38.628Z,49.63
2019-01-23T13:28:42.983Z,49.40
2019-01-23T13:33:47.391Z,50.93
2019-01-23T13:38:51.789Z,49.90
2019-01-23T13:43:56.192Z,49.07
2019-01-23T13:49:00.544Z,48.60
2019-01-23T13:54:05.331Z,50.97
2019-01-23T13:59:09.683Z,51.60
2019-01-23T14:04:14.056Z,53.77
2019-01-23T14:09:18.450Z,63.40
2019-01-23T14:14:22.906Z,61.00
2019-01-23T14:19:27.278Z,58.77
2019-01-23T14:24:31.746Z,55.97
2019-01-23T14:29:37.205Z,56.63
2019-01-23T14:34:41.571Z,55.77
2019-01-23T14:39:45.947Z,53.97
2019-01-23T14:44:50.300Z,57.57
2019-01-23T14:49:54.686Z,58.27
2019-01-23T14:54:59.036Z,51.90
2019-01-23T15:00:04.589Z,54.17
2019-01-23T15:05:09.041Z,52.20
2019-01-23T15:10:21.434Z,54.63
2019-01-23T15:15:25.869Z,54.10
2019-01-23T15:20:34.225Z,53.57
2019-01-23T15:25:38.681Z,52.13
2019-01-23T15:30:43.056Z,50.47
2019-01-23T15:35:47.416Z,50.60
2019-01-23T15:40:51.895Z,47.70
2019-01-23T15:45:56.280Z,46.90
2019-01-23T15:51:00.685Z,47.43
2019-01-23T15:56:05.115Z,47.43
2019-01-23T16:01:09.581Z,47.07
2019-01-23T16:06:13.935Z,46.77
2019-01-23T16:11:18.516Z,46.10
2019-01-23T16:16:23.936Z,45.37
2019-01-23T16:21:28.291Z,44.43
2019-01-23T16:26:32.680Z,47.73
2019-01-23T16:31:37.045Z,46.00
2019-01-23T16:36:41.439Z,43.17
2019-01-23T16:41:45.830Z,44.33
2019-01-23T16:46:50.246Z,45.90
2019-01-23T16:51:54.620Z,44.00
2019-01-23T16:56:59.037Z,44.10
2019-01-23T17:02:03.423Z,42.80
2019-01-23T17:07:07.875Z,44.10
2019-01-23T17:12:12.364Z,44.00
2019-01-23T17:17:16.826Z,43.10
2019-01-23T17:22:21.234Z,39.83
2019-01-23T17:27:25.591Z,38.47
2019-01-23T17:32:29.966Z,38.40
2019-01-23T17:37:34.308Z,38.63
2019-01-23T17:42:40.474Z,36.83
2019-01-23T17:47:45.029Z,33.43
2019-01-23T17:52:49.488Z,32.67
2019-01-23T17:57:54.872Z,32.87
2019-01-23T18:02:59.816Z,33.10
2019-01-23T18:08:04.436Z,32.10
2019-01-23T18:13:08.809Z,30.73
2019-01-23T18:18:13.839Z,30.50
2019-01-23T18:23:20.142Z,32.43
2019-01-23T18:28:24.684Z,31.93
2019-01-23T18:33:38.317Z,32.63
2019-01-23T18:38:48.748Z,30.13
2019-01-23T18:44:24.751Z,29.87
2019-01-23T18:49:50.082Z,28.63
2019-01-23T18:54:54.652Z,29.20
2019-01-23T18:59:59.534Z,29.30
2019-01-23T19:05:06.672Z,30.83
2019-01-23T19:10:14.154Z,30.10
2019-01-23T19:15:20.275Z,27.83
2019-01-23T19:20:24.935Z,29.33
2019-01-23T19:25:29.294Z,27.83
2019-01-23T19:30:34.072Z,27.97
2019-01-23T19:35:39.468Z,29.07
2019-01-23T19:40:43.820Z,27.70
2019-01-23T19:45:48.294Z,27.90
2019-01-23T19:50:52.690Z,28.23
2019-01-23T19:55:57.148Z,28.67
2019-01-23T20:01:01.488Z,29.47
2019-01-23T20:06:06.928Z,31.17
2019-01-23T20:11:12.365Z,29.67
2019-01-23T20:16:16.809Z,30.83
2019-01-23T20:21:21.213Z,31.52
2019-01-23T20:26:25.689Z,30.53
2019-01-23T20:31:30.075Z,31.23
2019-01-23T20:36:34.417Z,30.73
2019-01-23T20:41:38.823Z,30.90
2019-01-23T20:46:43.215Z,30.93
2019-01-23T20:51:47.669Z,35.17
2019-01-23T20:56:52.058Z,35.53
2019-01-23T21:01:56.428Z,32.43
2019-01-23T21:07:00.806Z,29.30
2019-01-23T21:12:05.258Z,30.17
2019-01-23T21:17:09.631Z,30.17
2019-01-23T21:22:14.116Z,29.97
2019-01-23T21:27:18.491Z,30.23
2019-01-23T21:32:22.875Z,30.57
2019-01-23T21:37:27.251Z,31.55
2019-01-23T21:42:31.644Z,31.30
2019-01-23T21:47:36.960Z,31.77
2019-01-23T21:52:41.278Z,31.60
2019-01-23T21:57:45.660Z,33.47
2019-01-23T22:02:50.040Z,36.17
2019-01-23T22:07:54.747Z,34.33
2019-01-23T22:12:59.155Z,33.60
2019-01-23T22:18:04.293Z,34.80
2019-01-23T22:23:09.232Z,33.63
2019-01-23T22:28:13.593Z,32.85
2019-01-23T22:33:18.083Z,33.40
2019-01-23T22:38:22.444Z,33.83
2019-01-23T22:43:26.803Z,32.13
2019-01-23T22:48:31.297Z,31.53
2019-01-23T22:53:35.785Z,30.77
2019-01-23T22:58:40.162Z,30.60
2019-01-23T23:03:45.891Z,30.27
2019-01-23T23:08:51.304Z,30.07
2019-01-23T23:13:55.679Z,31.47
2019-01-23T23:19:00.736Z,30.67
2019-01-23T23:24:06.152Z,31.40
2019-01-23T23:29:10.609Z,30.40
2019-01-23T23:34:14.967Z,32.17
2019-01-23T23:39:19.359Z,32.57
2019-01-23T23:44:23.769Z,33.23
2019-01-23T23:49:28.143Z,34.90
2019-01-23T23:54:32.531Z,35.33
2019-01-23T23:59:36.935Z,35.77
